createdAt,value
2019-05-01T00:01:14.667Z,46.47
2019-05-01T00:03:51.043Z,49.83
2019-05-01T00:06:21.433Z,47.87
2019-05-01T00:08:50.216Z,53.37
2019-05-01T00:11:19.034Z,52.97
2019-05-01T00:13:47.838Z,53.77
2019-05-01T00:16:16.591Z,53.03
2019-05-01T00:18:45.328Z,56.00
2019-05-01T00:21:14.686Z,51.30
2019-05-01T00:23:43.416Z,55.30
2019-05-01T00:26:12.112Z,57.07
2019-05-01T00:28:40.903Z,56.90
2019-05-01T00:31:09.668Z,55.37
2019-05-01T00:33:38.414Z,56.67
2019-05-01T00:36:07.112Z,57.63
2019-05-01T00:38:35.814Z,54.03
2019-05-01T00:41:04.594Z,56.23
2019-05-01T00:43:33.357Z,52.87
2019-05-01T00:46:02.134Z,58.83
2019-05-01T00:48:30.758Z,51.50
2019-05-01T00:50:59.548Z,54.07
2019-05-01T00:53:28.413Z,49.43
2019-05-01T00:56:07.739Z,53.43
2019-05-01T00:58:54.805Z,51.40
2019-05-01T01:01:28.105Z,51.23
2019-05-01T01:03:56.949Z,59.57
2019-05-01T01:06:30.813Z,57.90
2019-05-01T01:08:59.538Z,54.30
2019-05-01T01:11:28.323Z,54.50
2019-05-01T01:13:57.051Z,53.10
2019-05-01T01:16:25.811Z,56.93
2019-05-01T01:18:54.496Z,53.30
2019-05-01T01:21:23.267Z,58.93
2019-05-01T01:23:52.162Z,54.63
2019-05-01T01:26:20.937Z,57.80
2019-05-01T01:28:49.737Z,58.67
2019-05-01T01:31:18.509Z,58.47
2019-05-01T01:33:47.306Z,60.00
2019-05-01T01:36:16.068Z,60.37
2019-05-01T01:38:44.799Z,61.13
2019-05-01T01:41:13.679Z,59.47
2019-05-01T01:43:46.973Z,58.93
2019-05-01T01:46:17.388Z,55.03
2019-05-01T01:48:46.245Z,53.57
2019-05-01T01:51:15.031Z,53.70
2019-05-01T01:53:43.895Z,54.90
2019-05-01T01:56:12.726Z,60.47
2019-05-01T01:58:41.569Z,58.67
2019-05-01T02:01:29.548Z,59.77
2019-05-01T02:03:59.961Z,62.20
2019-05-01T02:06:28.755Z,60.03
2019-05-01T02:08:57.537Z,60.27
2019-05-01T02:11:26.744Z,55.53
2019-05-01T02:13:56.203Z,62.57
2019-05-01T02:16:49.886Z,61.27
2019-05-01T02:19:18.666Z,54.57
2019-05-01T02:21:47.355Z,60.53
2019-05-01T02:24:16.192Z,58.80
2019-05-01T02:26:52.111Z,59.83
2019-05-01T02:29:22.743Z,63.53
2019-05-01T02:31:53.462Z,57.80
2019-05-01T02:34:24.110Z,65.97
2019-05-01T02:36:54.632Z,59.23
2019-05-01T02:39:24.438Z,63.17
2019-05-01T02:41:54.751Z,59.33
2019-05-01T02:44:32.141Z,68.57
2019-05-01T02:47:03.836Z,67.50
2019-05-01T02:49:41.322Z,65.73
2019-05-01T02:52:11.926Z,73.23
2019-05-01T02:54:43.655Z,73.00
2019-05-01T02:57:18.710Z,70.03
2019-05-01T02:59:50.464Z,75.90
2019-05-01T03:02:22.462Z,74.37
2019-05-01T03:04:52.354Z,72.27
2019-05-01T03:07:22.721Z,75.07
2019-05-01T03:09:52.158Z,67.27
2019-05-01T03:12:23.321Z,68.57
2019-05-01T03:14:53.598Z,65.93
2019-05-01T03:17:41.045Z,62.57
2019-05-01T03:20:27.083Z,61.73
2019-05-01T03:23:13.479Z,59.17
2019-05-01T03:25:43.184Z,52.57
2019-05-01T03:28:12.803Z,51.77
2019-05-01T03:30:41.562Z,52.50
2019-05-01T03:33:10.365Z,56.10
2019-05-01T03:35:39.276Z,56.90
2019-05-01T03:38:08.387Z,54.07
2019-05-01T03:40:37.363Z,51.77
2019-05-01T03:43:06.352Z,47.63
2019-05-01T03:45:35.443Z,53.60
2019-05-01T03:48:04.331Z,51.50
2019-05-01T03:50:33.102Z,50.37
2019-05-01T03:53:02.615Z,55.60
2019-05-01T03:55:31.574Z,49.00
2019-05-01T03:58:00.469Z,51.13
2019-05-01T04:00:40.035Z,47.13
2019-05-01T04:03:22.863Z,46.30
2019-05-01T04:05:51.985Z,46.13
2019-05-01T04:08:20.726Z,45.10
2019-05-01T04:10:49.633Z,50.80
2019-05-01T04:13:18.395Z,44.33
2019-05-01T04:15:47.295Z,50.53
2019-05-01T04:18:16.598Z,49.43
2019-05-01T04:20:45.792Z,52.90
2019-05-01T04:23:14.864Z,49.53
2019-05-01T04:25:43.757Z,47.53
2019-05-01T04:28:30.731Z,49.23
2019-05-01T04:31:17.407Z,50.97
2019-05-01T04:33:48.143Z,48.77
2019-05-01T04:36:21.321Z,49.23
2019-05-01T04:38:50.243Z,51.10
2019-05-01T04:41:19.131Z,43.93
2019-05-01T04:43:47.937Z,50.93
2019-05-01T04:46:16.738Z,45.57
2019-05-01T04:48:45.572Z,48.33
2019-05-01T04:51:14.561Z,47.63
2019-05-01T04:53:43.345Z,46.83
2019-05-01T04:56:30.063Z,45.63
2019-05-01T04:58:59.470Z,47.07
2019-05-01T05:01:29.959Z,46.63
2019-05-01T05:03:59.340Z,47.73
2019-05-01T05:06:28.188Z,44.80
2019-05-01T05:08:57.597Z,44.93
2019-05-01T05:11:30.808Z,45.97
2019-05-01T05:14:17.338Z,44.17
2019-05-01T05:16:50.497Z,43.37
2019-05-01T05:19:19.243Z,45.90
2019-05-01T05:21:48.678Z,45.73
2019-05-01T05:24:17.874Z,41.87
2019-05-01T05:26:46.864Z,44.90
2019-05-01T05:29:17.223Z,43.07
2019-05-01T05:31:46.701Z,39.43
2019-05-01T05:34:18.216Z,38.17
2019-05-01T05:36:49.468Z,37.87
2019-05-01T05:39:26.674Z,36.57
2019-05-01T05:41:57.001Z,39.20
2019-05-01T05:44:25.982Z,38.97
2019-05-01T05:46:54.797Z,42.57
2019-05-01T05:49:23.610Z,37.60
2019-05-01T05:51:55.428Z,37.37
2019-05-01T05:54:32.448Z,39.13
2019-05-01T05:57:21.549Z,34.10
2019-05-01T05:59:53.681Z,32.03
2019-05-01T06:02:35.170Z,34.67
2019-05-01T06:05:07.275Z,33.87
2019-05-01T06:07:56.717Z,30.13
2019-05-01T06:10:31.144Z,30.53
2019-05-01T06:13:03.291Z,34.17
2019-05-01T06:15:41.182Z,34.30
2019-05-01T06:18:11.585Z,31.37
2019-05-01T06:20:45.182Z,30.40
2019-05-01T06:23:20.657Z,30.67
2019-05-01T06:26:02.289Z,32.53
2019-05-01T06:28:30.466Z,30.90
2019-05-01T06:31:23.213Z,32.10
2019-05-01T06:33:53.092Z,30.30
2019-05-01T06:36:20.041Z,34.20
2019-05-01T06:38:49.238Z,33.27
2019-05-01T06:41:19.283Z,29.77
2019-05-01T06:43:56.880Z,29.90
2019-05-01T06:46:35.482Z,31.60
2019-05-01T06:49:29.115Z,31.30
2019-05-01T06:52:02.351Z,32.57
2019-05-01T06:54:32.359Z,26.93
2019-05-01T06:57:03.495Z,28.50
2019-05-01T06:59:33.519Z,28.20
2019-05-01T07:02:02.873Z,31.70
2019-05-01T07:04:38.134Z,32.53
2019-05-01T07:07:06.674Z,29.90
2019-05-01T07:09:35.783Z,29.63
2019-05-01T07:12:07.237Z,32.67
2019-05-01T07:14:36.550Z,27.57
2019-05-01T07:17:08.933Z,29.33
2019-05-01T07:19:52.965Z,29.63
2019-05-01T07:22:21.947Z,29.20
2019-05-01T07:24:50.936Z,26.93
2019-05-01T07:27:23.914Z,26.00
2019-05-01T07:29:52.014Z,24.70
2019-05-01T07:32:21.133Z,28.63
2019-05-01T07:34:49.917Z,24.57
2019-05-01T07:37:20.748Z,23.73
2019-05-01T07:39:51.772Z,25.90
2019-05-01T07:42:28.457Z,26.67
2019-05-01T07:45:03.797Z,25.03
2019-05-01T07:47:42.875Z,27.10
2019-05-01T07:50:12.935Z,25.60
2019-05-01T07:52:42.382Z,25.90
2019-05-01T07:55:13.020Z,28.87
2019-05-01T07:57:44.434Z,28.83
2019-05-01T08:00:23.737Z,28.83
2019-05-01T08:02:52.454Z,27.27
2019-05-01T08:05:21.237Z,28.27
2019-05-01T08:07:50.028Z,27.27
2019-05-01T08:10:20.943Z,32.37
2019-05-01T08:12:49.181Z,33.23
2019-05-01T08:15:17.972Z,33.27
2019-05-01T08:17:48.807Z,30.57
2019-05-01T08:20:22.138Z,30.97
2019-05-01T08:22:50.930Z,35.33
2019-05-01T08:25:19.695Z,32.03
2019-05-01T08:27:50.934Z,33.37
2019-05-01T08:30:37.471Z,34.10
2019-05-01T08:33:14.703Z,34.73
2019-05-01T08:35:43.990Z,33.10
2019-05-01T08:38:12.688Z,34.87
2019-05-01T08:40:41.481Z,35.80
2019-05-01T08:43:13.660Z,32.70
2019-05-01T08:45:58.343Z,34.30
2019-05-01T08:48:35.890Z,35.13
2019-05-01T08:51:02.463Z,37.27
2019-05-01T08:53:31.249Z,35.97
2019-05-01T08:55:59.961Z,35.40
2019-05-01T08:58:28.750Z,41.00
2019-05-01T09:00:57.531Z,34.97
2019-05-01T09:03:26.507Z,36.90
2019-05-01T09:05:57.557Z,32.67
2019-05-01T09:08:27.069Z,39.37
2019-05-01T09:11:00.268Z,34.53
2019-05-01T09:13:26.746Z,35.87
2019-05-01T09:15:55.471Z,36.93
2019-05-01T09:18:24.150Z,36.00
2019-05-01T09:20:54.458Z,36.83
2019-05-01T09:23:23.249Z,34.57
2019-05-01T09:25:53.668Z,33.63
2019-05-01T09:28:24.110Z,35.70
2019-05-01T09:31:01.281Z,37.27
2019-05-01T09:33:30.763Z,36.97
2019-05-01T09:35:57.860Z,37.57
2019-05-01T09:38:26.658Z,36.53
2019-05-01T09:40:55.371Z,40.07
2019-05-01T09:43:24.157Z,39.40
2019-05-01T09:45:52.933Z,38.87
2019-05-01T09:48:21.795Z,41.20
2019-05-01T09:50:52.183Z,39.70
2019-05-01T09:53:35.485Z,35.33
2019-05-01T09:56:07.771Z,41.23
2019-05-01T09:58:36.456Z,34.27
2019-05-01T10:01:07.698Z,33.30
2019-05-01T10:03:36.434Z,32.53
2019-05-01T10:06:05.655Z,31.90
2019-05-01T10:08:34.777Z,34.53
2019-05-01T10:11:06.751Z,33.27
2019-05-01T10:13:35.399Z,31.13
2019-05-01T10:16:04.313Z,31.67
2019-05-01T10:18:33.021Z,32.03
2019-05-01T10:21:01.684Z,29.53
2019-05-01T10:23:30.303Z,34.03
2019-05-01T10:26:00.599Z,35.50
2019-05-01T10:28:31.009Z,30.97
2019-05-01T10:31:01.556Z,31.70
2019-05-01T10:33:49.706Z,32.00
2019-05-01T10:36:22.793Z,32.70
2019-05-01T10:38:51.887Z,34.43
2019-05-01T10:41:20.627Z,31.43
2019-05-01T10:43:49.286Z,33.30
2019-05-01T10:46:17.998Z,28.70
2019-05-01T10:48:46.814Z,31.97
2019-05-01T10:51:15.580Z,26.77
2019-05-01T10:53:44.362Z,28.93
2019-05-01T10:56:13.088Z,31.70
2019-05-01T10:58:41.813Z,28.43
2019-05-01T11:01:12.215Z,30.07
2019-05-01T11:03:42.685Z,27.73
2019-05-01T11:06:11.521Z,31.40
2019-05-01T11:08:40.429Z,26.30
2019-05-01T11:11:09.013Z,25.93
2019-05-01T11:13:37.704Z,27.37
2019-05-01T11:16:14.453Z,38.10
2019-05-01T11:18:43.167Z,27.83
2019-05-01T11:21:11.938Z,28.03
2019-05-01T11:23:40.658Z,27.37
2019-05-01T11:26:09.426Z,29.33
2019-05-01T11:28:38.254Z,29.13
2019-05-01T11:31:08.687Z,30.47
2019-05-01T11:33:50.820Z,28.70
2019-05-01T11:36:24.572Z,28.83
2019-05-01T11:38:57.700Z,27.67
2019-05-01T11:41:37.143Z,29.50
2019-05-01T11:44:05.920Z,28.27
2019-05-01T11:46:34.715Z,28.57
2019-05-01T11:49:03.503Z,27.87
2019-05-01T11:51:32.241Z,27.23
2019-05-01T11:54:02.294Z,26.70
2019-05-01T11:56:31.133Z,27.23
2019-05-01T11:58:59.850Z,29.17
2019-05-01T12:01:28.644Z,27.00
2019-05-01T12:03:57.502Z,26.03
2019-05-01T12:06:26.314Z,30.60
2019-05-01T12:08:55.036Z,29.07
2019-05-01T12:11:25.371Z,31.40
2019-05-01T12:13:54.190Z,26.67
2019-05-01T12:16:26.969Z,28.67
2019-05-01T12:18:55.696Z,25.97
2019-05-01T12:21:24.396Z,25.90
2019-05-01T12:23:53.052Z,27.03
2019-05-01T12:26:21.748Z,27.17
2019-05-01T12:28:50.682Z,28.10
2019-05-01T12:31:19.346Z,25.87
2019-05-01T12:33:48.132Z,27.10
2019-05-01T12:36:16.986Z,28.43
2019-05-01T12:38:45.741Z,27.87
2019-05-01T12:41:18.831Z,26.37
2019-05-01T12:43:47.500Z,26.83
2019-05-01T12:46:17.820Z,26.67
2019-05-01T12:48:46.674Z,25.10
2019-05-01T12:51:15.441Z,26.03
2019-05-01T12:53:54.821Z,26.60
2019-05-01T12:56:41.046Z,29.40
2019-05-01T12:59:09.824Z,28.00
2019-05-01T13:01:38.565Z,24.47
2019-05-01T13:04:07.346Z,28.70
2019-05-01T13:06:48.635Z,27.43
2019-05-01T13:09:08.117Z,27.43
2019-05-01T13:11:36.918Z,29.57
2019-05-01T13:14:05.680Z,31.87
2019-05-01T13:16:34.506Z,31.47
2019-05-01T13:19:03.254Z,29.03
2019-05-01T13:21:32.036Z,28.30
2019-05-01T13:24:00.863Z,32.67
2019-05-01T13:26:40.484Z,26.40
2019-05-01T13:29:13.832Z,28.00
2019-05-01T13:31:53.303Z,28.07
2019-05-01T13:34:24.999Z,27.03
2019-05-01T13:37:02.938Z,29.70
2019-05-01T13:39:24.211Z,27.90
2019-05-01T13:41:53.428Z,27.10
2019-05-01T13:44:22.341Z,31.37
2019-05-01T13:46:51.041Z,27.23
2019-05-01T13:49:19.701Z,25.27
2019-05-01T13:51:48.463Z,26.00
2019-05-01T13:54:17.274Z,28.90
2019-05-01T13:56:46.147Z,28.20
2019-05-01T13:59:15.358Z,29.17
2019-05-01T14:01:44.115Z,29.23
2019-05-01T14:04:13.505Z,27.97
2019-05-01T14:06:42.170Z,31.40
2019-05-01T14:09:12.593Z,27.27
2019-05-01T14:11:41.210Z,26.37
2019-05-01T14:14:09.952Z,27.93
2019-05-01T14:16:38.757Z,25.50
2019-05-01T14:19:07.520Z,30.70
2019-05-01T14:21:37.956Z,27.43
2019-05-01T14:24:20.416Z,29.70
2019-05-01T14:26:57.951Z,29.20
2019-05-01T14:29:26.637Z,29.87
2019-05-01T14:31:55.388Z,29.43
2019-05-01T14:34:24.338Z,30.73
2019-05-01T14:36:53.126Z,28.73
2019-05-01T14:39:21.982Z,32.30
2019-05-01T14:41:51.899Z,29.03
2019-05-01T14:44:20.604Z,29.90
2019-05-01T14:46:49.469Z,30.07
2019-05-01T14:49:18.231Z,32.07
2019-05-01T14:51:46.937Z,29.17
2019-05-01T14:54:15.739Z,36.63
2019-05-01T14:56:44.464Z,48.73
2019-05-01T14:59:13.258Z,30.10
2019-05-01T15:01:42.146Z,31.53
2019-05-01T15:04:10.812Z,28.30
2019-05-01T15:06:39.521Z,28.20
2019-05-01T15:09:08.589Z,29.23
2019-05-01T15:11:37.918Z,29.43
2019-05-01T15:14:08.360Z,29.70
2019-05-01T15:16:38.765Z,27.00
2019-05-01T15:19:14.736Z,27.07
2019-05-01T15:21:46.067Z,27.50
2019-05-01T15:24:14.728Z,28.50
2019-05-01T15:26:43.490Z,27.67
2019-05-01T15:29:12.373Z,27.47
2019-05-01T15:31:41.279Z,28.23
2019-05-01T15:34:10.325Z,27.23
2019-05-01T15:36:39.063Z,27.43
2019-05-01T15:39:11.097Z,25.13
2019-05-01T15:41:57.563Z,26.43
2019-05-01T15:44:28.202Z,25.80
2019-05-01T15:46:56.937Z,27.63
2019-05-01T15:49:25.773Z,26.23
2019-05-01T15:51:54.558Z,26.43
2019-05-01T15:54:23.277Z,27.03
2019-05-01T15:56:52.039Z,27.23
2019-05-01T15:59:21.091Z,26.87
2019-05-01T16:01:49.828Z,28.87
2019-05-01T16:04:18.553Z,27.67
2019-05-01T16:06:47.442Z,28.33
2019-05-01T16:09:16.650Z,27.55
2019-05-01T16:12:03.335Z,27.30
2019-05-01T16:14:32.195Z,26.87
2019-05-01T16:17:01.000Z,26.87
2019-05-01T16:19:29.661Z,26.93
2019-05-01T16:21:58.397Z,27.27
2019-05-01T16:24:27.169Z,27.07
2019-05-01T16:26:55.842Z,27.77
2019-05-01T16:29:24.466Z,27.20
2019-05-01T16:31:53.289Z,28.40
2019-05-01T16:34:21.939Z,26.67
2019-05-01T16:36:50.700Z,26.97
2019-05-01T16:39:26.927Z,30.57
2019-05-01T16:41:55.729Z,27.33
2019-05-01T16:44:24.493Z,29.13
2019-05-01T16:46:53.233Z,27.10
2019-05-01T16:49:21.918Z,28.30
2019-05-01T16:51:50.661Z,28.50
2019-05-01T16:54:19.405Z,29.20
2019-05-01T16:56:48.158Z,28.20
2019-05-01T16:59:16.843Z,29.20
2019-05-01T17:01:47.374Z,29.30
2019-05-01T17:04:26.289Z,27.33
2019-05-01T17:07:12.669Z,27.73
2019-05-01T17:09:58.035Z,28.03
2019-05-01T17:12:28.839Z,28.63
2019-05-01T17:14:57.629Z,29.33
2019-05-01T17:17:26.966Z,28.30
2019-05-01T17:19:55.782Z,29.07
2019-05-01T17:22:24.495Z,28.93
2019-05-01T17:24:53.316Z,28.70
2019-05-01T17:27:22.118Z,28.23
2019-05-01T17:29:50.911Z,27.30
2019-05-01T17:32:19.607Z,30.63
2019-05-01T17:34:48.612Z,30.03
2019-05-01T17:37:17.411Z,31.80
2019-05-01T17:39:46.221Z,30.07
2019-05-01T17:42:14.933Z,33.43
2019-05-01T17:44:43.705Z,30.77
2019-05-01T17:47:12.495Z,29.13
2019-05-01T17:49:44.832Z,30.10
2019-05-01T17:52:11.550Z,35.00
2019-05-01T17:54:40.316Z,31.30
2019-05-01T17:57:08.967Z,33.33
2019-05-01T17:59:37.744Z,30.93
2019-05-01T18:02:24.398Z,30.60
2019-05-01T18:04:54.726Z,31.57
2019-05-01T18:07:23.736Z,29.33
2019-05-01T18:09:55.708Z,32.50
2019-05-01T18:12:23.446Z,29.80
2019-05-01T18:14:53.465Z,30.57
2019-05-01T18:17:25.099Z,31.80
2019-05-01T18:19:53.897Z,32.87
2019-05-01T18:22:26.896Z,30.93
2019-05-01T18:24:59.700Z,31.33
2019-05-01T18:27:39.017Z,30.40
2019-05-01T18:30:10.396Z,31.30
2019-05-01T18:32:41.501Z,32.00
2019-05-01T18:35:14.064Z,31.97
2019-05-01T18:37:52.860Z,35.90
2019-05-01T18:40:29.197Z,33.97
2019-05-01T18:42:57.975Z,33.33
2019-05-01T18:45:47.587Z,31.90
2019-05-01T18:48:16.683Z,34.73
2019-05-01T18:50:49.309Z,32.83
2019-05-01T18:53:16.312Z,33.20
2019-05-01T18:55:45.073Z,32.53
2019-05-01T18:58:15.335Z,32.63
2019-05-01T19:00:44.183Z,33.40
2019-05-01T19:03:12.992Z,31.50
2019-05-01T19:05:43.189Z,30.07
2019-05-01T19:08:12.177Z,31.07
2019-05-01T19:10:41.030Z,34.93
2019-05-01T19:13:10.188Z,30.37
2019-05-01T19:15:39.065Z,31.23
2019-05-01T19:18:07.960Z,29.37
2019-05-01T19:20:36.729Z,28.47
2019-05-01T19:23:05.685Z,27.37
2019-05-01T19:25:34.492Z,29.27
2019-05-01T19:28:04.643Z,29.20
2019-05-01T19:30:33.444Z,29.00
2019-05-01T19:33:02.128Z,29.97
2019-05-01T19:35:34.048Z,26.03
2019-05-01T19:38:01.307Z,26.77
2019-05-01T19:40:32.571Z,24.60
2019-05-01T19:43:00.584Z,28.43
2019-05-01T19:45:29.397Z,25.83
2019-05-01T19:47:58.146Z,27.77
2019-05-01T19:50:26.925Z,23.93
2019-05-01T19:52:55.691Z,25.10
2019-05-01T19:55:24.429Z,22.43
2019-05-01T19:57:53.204Z,21.00
2019-05-01T20:00:27.777Z,24.33
2019-05-01T20:02:59.053Z,24.03
2019-05-01T20:05:27.517Z,20.27
2019-05-01T20:07:57.909Z,21.00
2019-05-01T20:10:26.681Z,21.97
2019-05-01T20:12:55.521Z,22.47
2019-05-01T20:15:26.567Z,20.77
2019-05-01T20:17:55.274Z,20.70
2019-05-01T20:20:24.058Z,18.30
2019-05-01T20:22:55.142Z,27.23
2019-05-01T20:25:23.124Z,23.23
2019-05-01T20:27:53.209Z,20.83
2019-05-01T20:30:22.104Z,20.80
2019-05-01T20:32:50.890Z,22.00
2019-05-01T20:35:23.966Z,21.70
2019-05-01T20:37:50.059Z,21.90
2019-05-01T20:40:18.859Z,22.27
2019-05-01T20:42:47.626Z,21.77
2019-05-01T20:45:18.344Z,23.73
2019-05-01T20:47:48.184Z,24.50
2019-05-01T20:50:17.251Z,19.87
2019-05-01T20:52:45.950Z,25.50
2019-05-01T20:55:15.234Z,24.50
2019-05-01T20:57:45.524Z,21.40
2019-05-01T21:00:16.681Z,23.83
2019-05-01T21:02:44.844Z,24.53
2019-05-01T21:05:15.266Z,25.90
2019-05-01T21:07:45.699Z,24.33
2019-05-01T21:10:24.430Z,23.23
2019-05-01T21:12:44.832Z,27.63
2019-05-01T21:15:13.749Z,24.83
2019-05-01T21:17:44.197Z,24.97
2019-05-01T21:20:13.430Z,27.57
2019-05-01T21:22:43.512Z,26.30
2019-05-01T21:25:13.805Z,27.00
2019-05-01T21:27:44.408Z,25.47
2019-05-01T21:30:13.851Z,27.67
2019-05-01T21:32:44.377Z,26.67
2019-05-01T21:35:13.742Z,30.23
2019-05-01T21:37:42.505Z,28.00
2019-05-01T21:40:12.855Z,30.90
2019-05-01T21:42:42.873Z,28.93
2019-05-01T21:45:12.719Z,28.43
2019-05-01T21:47:42.633Z,28.90
2019-05-01T21:50:13.188Z,26.90
2019-05-01T21:52:43.653Z,28.30
2019-05-01T21:55:12.242Z,24.60
2019-05-01T21:57:40.967Z,26.70
2019-05-01T22:00:10.136Z,28.80
2019-05-01T22:02:41.684Z,32.33
2019-05-01T22:05:09.557Z,27.47
2019-05-01T22:07:38.316Z,28.27
2019-05-01T22:10:08.206Z,30.43
2019-05-01T22:12:36.908Z,30.43
2019-05-01T22:15:11.108Z,29.30
2019-05-01T22:17:50.071Z,28.27
2019-05-01T22:20:20.382Z,31.93
2019-05-01T22:22:53.859Z,28.50
2019-05-01T22:25:27.201Z,28.27
2019-05-01T22:28:00.382Z,30.37
2019-05-01T22:30:42.332Z,31.57
2019-05-01T22:33:09.881Z,30.47
2019-05-01T22:35:40.308Z,32.47
2019-05-01T22:38:09.012Z,27.77
2019-05-01T22:41:05.067Z,27.17
2019-05-01T22:43:21.969Z,33.40
2019-05-01T22:45:50.770Z,34.53
2019-05-01T22:48:19.575Z,32.73
2019-05-01T22:50:49.998Z,30.40
2019-05-01T22:53:18.729Z,33.17
2019-05-01T22:55:47.417Z,32.33
2019-05-01T22:58:16.055Z,29.43
2019-05-01T23:00:52.193Z,34.80
2019-05-01T23:03:22.624Z,31.83
2019-05-01T23:05:51.388Z,32.60
2019-05-01T23:08:20.204Z,34.13
2019-05-01T23:10:48.982Z,33.47
2019-05-01T23:13:17.771Z,37.23
2019-05-01T23:15:46.728Z,33.93
2019-05-01T23:18:17.106Z,32.33
2019-05-01T23:20:45.792Z,31.00
2019-05-01T23:23:14.556Z,32.33
2019-05-01T23:25:43.284Z,33.43
2019-05-01T23:28:11.993Z,35.33
2019-05-01T23:30:40.867Z,31.90
2019-05-01T23:33:09.638Z,31.73
2019-05-01T23:35:38.427Z,40.50
2019-05-01T23:38:07.173Z,32.13
2019-05-01T23:40:36.138Z,35.97
2019-05-01T23:43:04.961Z,36.53
2019-05-01T23:45:33.711Z,37.07
2019-05-01T23:48:02.578Z,41.47
2019-05-01T23:50:31.262Z,34.50
2019-05-01T23:53:00.050Z,38.20
2019-05-01T23:55:28.742Z,38.23
2019-05-01T23:57:57.525Z,36.57
